createdAt,value
2022-08-07T00:01:44.588Z,85.10
2022-08-07T00:04:15.441Z,85.20
2022-08-07T00:06:51.834Z,85.60
2022-08-07T00:09:22.529Z,85.40
2022-08-07T00:11:55.270Z,85.60
2022-08-07T00:14:30.347Z,86.00
2022-08-07T00:17:02.683Z,85.70
2022-08-07T00:20:00.668Z,85.70
2022-08-07T00:22:24.584Z,85.70
2022-08-07T00:25:04.396Z,85.90
2022-08-07T00:27:51.645Z,85.80
2022-08-07T00:30:26.735Z,86.20
2022-08-07T00:32:58.646Z,86.20
2022-08-07T00:35:30.084Z,86.30
2022-08-07T00:37:59.142Z,86.10
2022-08-07T00:40:39.476Z,86.10
2022-08-07T00:43:59.186Z,86.30
2022-08-07T00:46:02.920Z,86.60
2022-08-07T00:48:32.340Z,86.20
2022-08-07T00:51:01.388Z,86.00
2022-08-07T00:53:39.000Z,85.70
2022-08-07T00:56:16.457Z,85.70
2022-08-07T00:58:46.973Z,86.30
2022-08-07T01:01:18.112Z,86.20
2022-08-07T01:03:56.121Z,86.40
2022-08-07T01:06:30.607Z,86.20
2022-08-07T01:09:01.166Z,86.60
2022-08-07T01:12:23.838Z,86.50
2022-08-07T01:14:28.315Z,86.50
2022-08-07T01:16:57.074Z,86.10
2022-08-07T01:19:26.848Z,85.90
2022-08-07T01:22:00.283Z,86.00
2022-08-07T01:24:31.187Z,85.60
2022-08-07T01:27:00.670Z,85.80
2022-08-07T01:29:33.676Z,86.00
2022-08-07T01:32:05.541Z,86.30
2022-08-07T01:34:39.386Z,86.60
2022-08-07T01:37:09.739Z,86.40
2022-08-07T01:39:40.992Z,86.70
2022-08-07T01:42:39.015Z,86.30
2022-08-07T01:45:04.780Z,86.30
2022-08-07T01:48:20.615Z,86.60
2022-08-07T01:50:28.954Z,87.30
2022-08-07T01:52:59.125Z,87.40
2022-08-07T01:55:38.348Z,87.30
2022-08-07T01:58:28.875Z,87.50
2022-08-07T02:01:25.654Z,87.50
2022-08-07T02:04:14.752Z,87.30
2022-08-07T02:06:44.597Z,87.40
2022-08-07T02:09:33.519Z,87.60
2022-08-07T02:12:18.431Z,87.60
2022-08-07T02:14:53.086Z,88.00
2022-08-07T02:17:27.776Z,87.50
2022-08-07T02:20:09.780Z,87.30
2022-08-07T02:22:46.365Z,87.10
2022-08-07T02:25:18.473Z,87.10
2022-08-07T02:27:51.183Z,87.40
2022-08-07T02:30:20.071Z,87.80
2022-08-07T02:33:03.770Z,87.70
2022-08-07T02:36:29.364Z,87.60
2022-08-07T02:38:31.981Z,87.70
2022-08-07T02:41:01.186Z,87.70
2022-08-07T02:43:33.147Z,88.00
2022-08-07T02:46:03.704Z,88.30
2022-08-07T02:48:31.719Z,88.00
2022-08-07T02:51:07.046Z,88.10
2022-08-07T02:53:44.368Z,87.90
2022-08-07T02:56:21.633Z,87.90
2022-08-07T02:58:53.963Z,87.80
2022-08-07T03:01:36.560Z,87.90
2022-08-07T03:04:12.813Z,87.40
2022-08-07T03:06:44.802Z,87.10
2022-08-07T03:09:14.502Z,87.10
2022-08-07T03:11:52.112Z,87.40
2022-08-07T03:14:26.451Z,87.40
2022-08-07T03:16:56.664Z,87.30
2022-08-07T03:19:28.927Z,87.50
2022-08-07T03:22:07.127Z,87.50
2022-08-07T03:24:36.684Z,87.50
2022-08-07T03:27:09.075Z,87.20
2022-08-07T03:29:44.686Z,86.20
2022-08-07T03:32:21.217Z,83.00
2022-08-07T03:35:16.510Z,82.30
2022-08-07T03:37:46.320Z,80.80
2022-08-07T03:40:22.173Z,79.70
2022-08-07T03:42:51.719Z,78.50
2022-08-07T03:45:30.794Z,76.60
2022-08-07T03:48:00.037Z,75.10
2022-08-07T03:50:28.510Z,73.90
2022-08-07T03:52:59.450Z,73.40
2022-08-07T03:55:53.426Z,72.10
2022-08-07T03:59:06.730Z,70.90
2022-08-07T04:01:11.235Z,69.90
2022-08-07T04:03:53.662Z,67.20
2022-08-07T04:06:36.131Z,68.70
2022-08-07T04:09:06.339Z,70.00
2022-08-07T04:12:27.759Z,70.30
2022-08-07T04:14:37.877Z,70.90
2022-08-07T04:18:04.655Z,70.50
2022-08-07T04:19:56.421Z,68.20
2022-08-07T04:22:27.433Z,65.40
2022-08-07T04:24:58.543Z,63.60
2022-08-07T04:27:26.824Z,62.00
2022-08-07T04:30:02.125Z,61.00
2022-08-07T04:32:34.255Z,59.10
2022-08-07T04:35:11.190Z,58.10
2022-08-07T04:37:52.842Z,58.50
2022-08-07T04:40:31.380Z,59.20
2022-08-07T04:43:02.111Z,60.30
2022-08-07T04:45:52.119Z,59.80
2022-08-07T04:48:58.313Z,60.30
2022-08-07T04:51:55.036Z,60.70
2022-08-07T04:54:33.400Z,58.90
2022-08-07T04:58:16.568Z,58.90
2022-08-07T05:00:17.459Z,56.90
2022-08-07T05:04:00.008Z,56.70
2022-08-07T05:06:28.713Z,56.20
2022-08-07T05:09:42.994Z,56.10
2022-08-07T05:12:26.736Z,54.90
2022-08-07T05:15:04.934Z,54.60
2022-08-07T05:17:50.969Z,55.00
2022-08-07T05:20:25.597Z,55.50
2022-08-07T05:22:58.430Z,55.30
2022-08-07T05:25:54.547Z,56.40
2022-08-07T05:28:23.106Z,55.40
2022-08-07T05:30:56.759Z,56.10
2022-08-07T05:33:24.421Z,56.00
2022-08-07T05:35:55.694Z,55.80
2022-08-07T05:39:01.206Z,54.60
2022-08-07T05:41:14.318Z,53.70
2022-08-07T05:44:07.711Z,53.80
2022-08-07T05:46:38.896Z,52.80
2022-08-07T05:49:11.602Z,54.10
2022-08-07T05:51:46.569Z,53.00
2022-08-07T05:54:30.568Z,53.30
2022-08-07T05:57:06.566Z,53.30
2022-08-07T05:59:57.251Z,53.40
2022-08-07T06:02:30.654Z,53.10
2022-08-07T06:05:03.477Z,51.80
2022-08-07T06:08:13.439Z,52.70
2022-08-07T06:10:21.730Z,52.20
2022-08-07T06:12:50.293Z,50.80
2022-08-07T06:15:19.665Z,51.30
2022-08-07T06:17:53.902Z,50.40
2022-08-07T06:20:25.569Z,50.70
2022-08-07T06:23:02.416Z,50.40
2022-08-07T06:25:54.504Z,50.20
2022-08-07T06:28:28.192Z,49.60
2022-08-07T06:30:58.275Z,49.70
2022-08-07T06:33:26.888Z,49.10
2022-08-07T06:36:06.424Z,47.80
2022-08-07T06:38:51.268Z,49.00
2022-08-07T06:42:00.866Z,46.70
2022-08-07T06:44:34.161Z,47.30
2022-08-07T06:47:10.662Z,49.40
2022-08-07T06:49:52.172Z,48.70
2022-08-07T06:52:35.614Z,48.00
2022-08-07T06:55:31.346Z,48.50
2022-08-07T06:57:59.347Z,48.10
2022-08-07T07:00:31.388Z,48.10
2022-08-07T07:03:00.782Z,47.60
2022-08-07T07:06:03.684Z,47.20
2022-08-07T07:08:18.732Z,47.80
2022-08-07T07:10:56.746Z,46.90
2022-08-07T07:13:56.672Z,48.10
2022-08-07T07:16:30.219Z,46.50
2022-08-07T07:19:54.463Z,47.00
2022-08-07T07:22:12.126Z,47.00
2022-08-07T07:24:57.061Z,48.20
2022-08-07T07:27:58.563Z,48.70
2022-08-07T07:30:37.880Z,48.10
2022-08-07T07:33:09.064Z,48.80
2022-08-07T07:36:04.527Z,47.70
2022-08-07T07:38:34.874Z,48.30
2022-08-07T07:41:08.744Z,48.50
2022-08-07T07:44:14.314Z,48.60
2022-08-07T07:46:37.636Z,49.20
2022-08-07T07:50:34.754Z,48.40
2022-08-07T07:52:10.293Z,49.50
2022-08-07T07:54:40.063Z,49.30
2022-08-07T07:57:51.593Z,48.40
2022-08-07T08:00:15.010Z,48.10
2022-08-07T08:03:06.296Z,48.30
2022-08-07T08:05:50.846Z,49.40
2022-08-07T08:08:35.743Z,49.40
2022-08-07T08:11:16.206Z,47.90
2022-08-07T08:13:55.028Z,47.90
2022-08-07T08:16:35.124Z,45.90
2022-08-07T08:19:17.977Z,43.90
2022-08-07T08:22:12.150Z,43.30
2022-08-07T08:25:24.756Z,41.90
2022-08-07T08:28:03.745Z,41.00
2022-08-07T08:30:34.822Z,43.00
2022-08-07T08:33:10.587Z,41.10
2022-08-07T08:35:50.000Z,44.20
2022-08-07T08:38:21.987Z,43.70
2022-08-07T08:41:13.587Z,42.90
2022-08-07T08:43:56.155Z,41.70
2022-08-07T08:46:47.766Z,40.90
2022-08-07T08:49:33.282Z,40.30
2022-08-07T08:52:22.568Z,42.30
2022-08-07T08:54:57.299Z,46.60
2022-08-07T08:57:40.715Z,49.00
2022-08-07T09:00:13.106Z,49.30
2022-08-07T09:02:43.827Z,49.30
2022-08-07T09:05:41.485Z,48.60
2022-08-07T09:08:46.795Z,48.90
2022-08-07T09:11:43.037Z,48.50
2022-08-07T09:14:32.565Z,43.10
2022-08-07T09:17:59.545Z,43.20
2022-08-07T09:20:43.583Z,42.50
2022-08-07T09:24:34.137Z,40.20
2022-08-07T09:26:47.876Z,42.80
2022-08-07T09:30:00.560Z,42.40
2022-08-07T09:32:18.540Z,42.00
2022-08-07T09:35:04.816Z,41.30
2022-08-07T09:38:04.039Z,41.30
2022-08-07T09:40:55.760Z,44.40
2022-08-07T09:44:06.197Z,42.10
2022-08-07T09:47:50.388Z,40.40
2022-08-07T09:50:02.605Z,41.50
2022-08-07T09:52:56.610Z,40.70
2022-08-07T09:56:03.314Z,40.70
2022-08-07T09:58:51.062Z,39.00
2022-08-07T10:01:53.118Z,40.00
2022-08-07T10:04:53.042Z,39.50
2022-08-07T10:08:05.318Z,36.50
2022-08-07T10:11:16.492Z,37.20
2022-08-07T10:14:23.001Z,35.00
2022-08-07T10:17:21.968Z,36.20
2022-08-07T10:20:22.316Z,37.60
2022-08-07T10:23:02.195Z,39.30
2022-08-07T10:25:43.634Z,38.50
2022-08-07T10:28:39.195Z,39.60
2022-08-07T10:31:28.479Z,36.70
2022-08-07T10:34:33.050Z,36.30
2022-08-07T10:38:00.107Z,37.90
2022-08-07T10:40:22.429Z,37.40
2022-08-07T10:43:34.295Z,36.50
2022-08-07T10:46:11.640Z,36.40
2022-08-07T10:48:56.160Z,37.90
2022-08-07T10:52:01.951Z,39.60
2022-08-07T10:55:07.863Z,41.00
2022-08-07T10:58:00.158Z,40.70
2022-08-07T11:00:39.241Z,39.30
2022-08-07T11:03:54.943Z,39.70
2022-08-07T11:06:53.024Z,39.90
2022-08-07T11:10:09.999Z,40.70
2022-08-07T11:12:31.977Z,41.20
2022-08-07T11:15:09.561Z,41.70
2022-08-07T11:18:04.569Z,41.60
2022-08-07T11:20:37.588Z,41.30
2022-08-07T11:23:12.489Z,41.50
2022-08-07T11:26:07.150Z,41.10
2022-08-07T11:28:53.536Z,42.70
2022-08-07T11:31:46.728Z,41.40
2022-08-07T11:34:42.351Z,42.30
2022-08-07T11:37:58.328Z,42.50
2022-08-07T11:41:02.007Z,42.20
2022-08-07T11:44:10.711Z,42.60
2022-08-07T11:46:55.473Z,41.80
2022-08-07T11:50:11.234Z,41.50
2022-08-07T11:52:44.549Z,42.40
2022-08-07T11:56:25.669Z,43.50
2022-08-07T11:58:56.922Z,41.40
2022-08-07T12:01:59.084Z,42.80
2022-08-07T12:05:09.141Z,42.70
2022-08-07T12:08:07.584Z,44.50
2022-08-07T12:11:20.298Z,46.40
2022-08-07T12:14:08.780Z,45.20
2022-08-07T12:16:45.245Z,45.30
2022-08-07T12:19:21.733Z,45.40
2022-08-07T12:22:38.014Z,45.80
2022-08-07T12:26:22.202Z,45.20
2022-08-07T12:28:44.903Z,45.40
2022-08-07T12:31:27.672Z,44.80
2022-08-07T12:34:19.395Z,45.20
2022-08-07T12:36:50.106Z,46.80
2022-08-07T12:39:42.062Z,43.90
2022-08-07T12:42:13.032Z,43.90
2022-08-07T12:44:46.215Z,44.70
2022-08-07T12:47:41.128Z,43.80
2022-08-07T12:50:33.785Z,42.80
2022-08-07T12:53:22.550Z,41.40
2022-08-07T12:56:03.962Z,38.20
2022-08-07T12:58:42.920Z,40.50
2022-08-07T13:01:32.640Z,40.20
2022-08-07T13:04:34.484Z,39.20
2022-08-07T13:07:09.375Z,40.60
2022-08-07T13:10:38.214Z,41.30
2022-08-07T13:13:46.894Z,40.10
2022-08-07T13:16:32.702Z,40.40
2022-08-07T13:19:22.045Z,41.30
2022-08-07T13:22:33.451Z,41.90
2022-08-07T13:25:23.919Z,41.40
2022-08-07T13:28:11.433Z,42.00
2022-08-07T13:30:49.068Z,42.10
2022-08-07T13:34:32.906Z,43.50
2022-08-07T13:36:41.737Z,44.50
2022-08-07T13:40:33.881Z,42.50
2022-08-07T13:42:37.524Z,42.80
2022-08-07T13:46:06.751Z,43.50
2022-08-07T13:48:06.202Z,42.20
2022-08-07T13:50:44.463Z,41.80
2022-08-07T13:53:26.837Z,41.80
2022-08-07T13:56:19.612Z,43.20
2022-08-07T13:59:10.409Z,41.40
2022-08-07T14:02:04.109Z,42.30
2022-08-07T14:04:46.112Z,40.80
2022-08-07T14:07:21.362Z,41.70
2022-08-07T14:10:12.081Z,40.00
2022-08-07T14:12:54.211Z,37.90
2022-08-07T14:15:58.452Z,39.50
2022-08-07T14:18:36.163Z,39.50
2022-08-07T14:22:02.553Z,38.80
2022-08-07T14:24:10.338Z,38.60
2022-08-07T14:26:51.908Z,40.10
2022-08-07T14:30:05.251Z,40.20
2022-08-07T14:32:13.504Z,43.30
2022-08-07T14:34:46.734Z,39.80
2022-08-07T14:37:38.820Z,40.30
2022-08-07T14:40:27.235Z,40.90
2022-08-07T14:46:00.260Z,40.20
2022-08-07T14:48:32.621Z,40.60
2022-08-07T14:54:09.687Z,41.10
2022-08-07T14:56:51.526Z,40.30
2022-08-07T15:00:04.352Z,40.60
2022-08-07T15:02:31.871Z,40.40
2022-08-07T15:05:04.035Z,40.60
2022-08-07T15:07:50.831Z,41.10
2022-08-07T15:10:26.383Z,43.00
2022-08-07T15:18:57.677Z,42.80
2022-08-07T15:21:44.833Z,45.10
2022-08-07T15:25:13.162Z,44.50
2022-08-07T15:27:28.987Z,44.20
2022-08-07T15:30:06.637Z,45.20
2022-08-07T15:33:01.600Z,45.40
2022-08-07T15:36:00.388Z,46.30
2022-08-07T15:38:30.715Z,47.30
2022-08-07T15:41:24.164Z,47.90
2022-08-07T15:44:11.201Z,47.60
2022-08-07T15:46:52.008Z,46.70
2022-08-07T15:50:04.250Z,47.30
2022-08-07T15:52:30.602Z,47.40
2022-08-07T15:55:03.556Z,48.30
2022-08-07T15:57:39.641Z,48.80
2022-08-07T16:00:31.696Z,48.20
2022-08-07T16:03:46.300Z,49.30
2022-08-07T16:06:14.360Z,49.70
2022-08-07T16:08:45.651Z,50.40
2022-08-07T16:11:39.886Z,50.00
2022-08-07T16:14:41.195Z,50.00
2022-08-07T16:18:02.470Z,50.20
2022-08-07T16:21:43.660Z,50.40
2022-08-07T16:23:59.325Z,51.60
2022-08-07T16:26:30.972Z,51.70
2022-08-07T16:30:08.642Z,52.10
2022-08-07T16:32:32.710Z,52.10
2022-08-07T16:35:58.557Z,52.00
2022-08-07T16:39:00.638Z,53.20
2022-08-07T16:41:52.058Z,53.40
2022-08-07T16:45:14.749Z,53.60
2022-08-07T16:48:06.115Z,53.90
2022-08-07T16:51:20.602Z,55.40
2022-08-07T16:54:12.201Z,56.20
2022-08-07T16:57:03.860Z,56.90
2022-08-07T16:59:47.876Z,57.20
2022-08-07T17:02:15.285Z,57.30
2022-08-07T17:06:02.438Z,57.90
2022-08-07T17:08:02.179Z,58.60
2022-08-07T17:10:54.881Z,59.00
2022-08-07T17:14:19.485Z,58.70
2022-08-07T17:17:00.917Z,58.90
2022-08-07T17:20:02.935Z,59.00
2022-08-07T17:22:52.890Z,59.90
2022-08-07T17:25:48.003Z,60.00
2022-08-07T17:28:19.647Z,60.40
2022-08-07T17:31:16.578Z,61.00
2022-08-07T17:34:15.355Z,62.50
2022-08-07T17:36:57.937Z,62.90
2022-08-07T17:40:03.063Z,63.20
2022-08-07T17:42:58.652Z,63.60
2022-08-07T17:45:42.294Z,64.50
2022-08-07T17:48:30.792Z,65.60
2022-08-07T17:51:14.519Z,65.70
2022-08-07T17:54:40.181Z,66.10
2022-08-07T17:57:58.560Z,66.30
2022-08-07T18:00:34.301Z,67.40
2022-08-07T18:03:18.322Z,67.90
2022-08-07T18:06:02.255Z,66.30
2022-08-07T18:09:01.810Z,65.00
2022-08-07T18:12:16.379Z,65.10
2022-08-07T18:14:46.178Z,65.10
2022-08-07T18:18:33.094Z,65.90
2022-08-07T18:21:11.699Z,65.80
2022-08-07T18:23:46.803Z,64.90
2022-08-07T18:26:27.115Z,63.60
2022-08-07T18:30:08.344Z,62.80
2022-08-07T18:32:32.739Z,61.40
2022-08-07T18:35:18.439Z,61.20
2022-08-07T18:38:57.835Z,61.80
2022-08-07T18:41:08.012Z,61.40
2022-08-07T18:43:57.741Z,60.80
2022-08-07T18:46:54.901Z,60.80
2022-08-07T18:50:30.516Z,60.80
2022-08-07T18:52:54.485Z,61.10
2022-08-07T18:55:55.949Z,61.60
2022-08-07T18:58:34.523Z,61.80
2022-08-07T19:02:18.880Z,63.30
2022-08-07T19:04:09.898Z,63.80
2022-08-07T19:06:56.879Z,64.60
2022-08-07T19:09:56.404Z,65.00
2022-08-07T19:13:10.228Z,64.90
2022-08-07T19:17:04.237Z,64.10
2022-08-07T19:18:56.050Z,64.30
2022-08-07T19:21:48.065Z,64.20
2022-08-07T19:24:34.627Z,63.90
2022-08-07T19:28:56.784Z,64.40
2022-08-07T19:30:56.948Z,63.80
2022-08-07T19:32:59.734Z,64.00
2022-08-07T19:35:33.333Z,64.30
2022-08-07T19:38:16.087Z,64.60
2022-08-07T19:40:50.812Z,64.80
2022-08-07T19:43:45.703Z,64.80
2022-08-07T19:46:29.040Z,65.60
2022-08-07T19:49:08.528Z,66.40
2022-08-07T19:51:51.924Z,67.10
2022-08-07T19:54:34.442Z,67.70
2022-08-07T19:58:02.405Z,68.00
2022-08-07T20:00:08.792Z,68.30
2022-08-07T20:02:51.630Z,68.30
2022-08-07T20:05:27.898Z,68.60
2022-08-07T20:08:03.307Z,68.70
2022-08-07T20:10:52.078Z,68.80
2022-08-07T20:13:45.340Z,69.30
2022-08-07T20:16:36.378Z,69.20
2022-08-07T20:19:10.976Z,69.30
2022-08-07T20:21:47.506Z,69.10
2022-08-07T20:24:36.384Z,69.30
2022-08-07T20:27:11.729Z,69.50
2022-08-07T20:29:59.456Z,69.50
2022-08-07T20:32:42.167Z,69.60
2022-08-07T20:35:26.614Z,69.70
2022-08-07T20:37:58.710Z,69.90
2022-08-07T20:40:33.149Z,70.10
2022-08-07T20:43:14.484Z,69.90
2022-08-07T20:46:29.014Z,70.10
2022-08-07T20:48:36.617Z,70.20
2022-08-07T20:51:09.674Z,70.70
2022-08-07T20:54:02.992Z,71.40
2022-08-07T20:56:32.430Z,71.90
2022-08-07T20:59:05.138Z,72.20
2022-08-07T21:01:46.024Z,73.80
2022-08-07T21:04:30.136Z,74.00
2022-08-07T21:07:04.083Z,73.50
2022-08-07T21:09:53.068Z,73.50
2022-08-07T21:12:31.395Z,73.70
2022-08-07T21:15:03.419Z,73.80
2022-08-07T21:18:03.445Z,74.80
2022-08-07T21:20:30.287Z,74.90
2022-08-07T21:23:08.580Z,75.30
2022-08-07T21:25:56.692Z,74.50
2022-08-07T21:28:48.850Z,74.10
2022-08-07T21:32:44.056Z,74.10
2022-08-07T21:35:09.385Z,75.10
2022-08-07T21:37:59.281Z,75.00
2022-08-07T21:40:38.096Z,75.20
2022-08-07T21:43:23.157Z,75.50
2022-08-07T21:46:24.507Z,76.10
2022-08-07T21:49:25.686Z,76.30
2022-08-07T21:51:57.254Z,76.30
2022-08-07T21:54:49.593Z,77.00
2022-08-07T21:57:55.677Z,77.20
2022-08-07T22:00:25.741Z,77.90
2022-08-07T22:03:16.486Z,78.00
2022-08-07T22:05:58.446Z,78.20
2022-08-07T22:08:34.444Z,77.80
2022-08-07T22:11:05.667Z,77.70
2022-08-07T22:13:51.443Z,77.80
2022-08-07T22:16:55.813Z,77.60
2022-08-07T22:20:10.760Z,77.40
2022-08-07T22:22:55.884Z,77.90
2022-08-07T22:25:39.961Z,78.00
2022-08-07T22:28:38.595Z,77.70
2022-08-07T22:32:00.467Z,77.70
2022-08-07T22:34:31.628Z,78.40
2022-08-07T22:37:09.322Z,77.80
2022-08-07T22:40:15.571Z,78.10
2022-08-07T22:42:46.514Z,78.50
2022-08-07T22:46:04.546Z,78.50
2022-08-07T22:48:31.361Z,79.10
2022-08-07T22:51:15.218Z,79.10
2022-08-07T22:54:09.353Z,79.40
2022-08-07T22:57:16.999Z,79.70
2022-08-07T23:00:13.986Z,79.50
2022-08-07T23:03:09.187Z,79.50
2022-08-07T23:06:14.864Z,79.40
2022-08-07T23:10:03.771Z,79.50
2022-08-07T23:12:34.350Z,80.00
2022-08-07T23:16:06.215Z,80.00
2022-08-07T23:18:42.461Z,80.00
2022-08-07T23:21:41.911Z,80.30
2022-08-07T23:24:28.089Z,79.80
2022-08-07T23:27:33.252Z,79.50
2022-08-07T23:30:38.234Z,79.50
2022-08-07T23:34:21.777Z,79.80
2022-08-07T23:36:39.726Z,79.80
2022-08-07T23:39:27.995Z,79.80
2022-08-07T23:42:53.244Z,79.60
2022-08-07T23:46:01.840Z,79.70
2022-08-07T23:48:58.694Z,79.90
2022-08-07T23:52:59.666Z,79.70
2022-08-07T23:54:36.441Z,80.90
2022-08-07T23:57:32.354Z,80.50
